createdAt,value
2019-02-27T00:00:21.791Z,4.61
2019-02-27T00:02:53.768Z,4.59
2019-02-27T00:05:23.360Z,4.61
2019-02-27T00:07:54.984Z,4.62
2019-02-27T00:10:23.305Z,4.70
2019-02-27T00:12:52.463Z,4.82
2019-02-27T00:15:20.841Z,4.86
2019-02-27T00:17:51.394Z,4.94
2019-02-27T00:20:19.208Z,4.99
2019-02-27T00:22:47.855Z,5.03
2019-02-27T00:25:17.496Z,5.12
2019-02-27T00:27:48.725Z,5.17
2019-02-27T00:30:15.834Z,5.16
2019-02-27T00:32:44.134Z,5.14
2019-02-27T00:35:12.398Z,5.15
2019-02-27T00:37:40.678Z,5.19
2019-02-27T00:40:08.968Z,5.26
2019-02-27T00:42:37.284Z,5.34
2019-02-27T00:45:08.383Z,5.34
2019-02-27T00:47:36.852Z,5.35
2019-02-27T00:50:07.718Z,5.39
2019-02-27T00:52:36.075Z,5.37
2019-02-27T00:55:07.146Z,5.29
2019-02-27T00:57:35.404Z,5.15
2019-02-27T01:00:06.437Z,5.07
2019-02-27T01:02:36.359Z,4.96
2019-02-27T01:05:08.715Z,4.89
2019-02-27T01:07:36.179Z,4.89
2019-02-27T01:10:06.114Z,4.82
2019-02-27T01:12:34.414Z,4.74
2019-02-27T01:15:02.750Z,4.75
2019-02-27T01:17:31.056Z,4.74
2019-02-27T01:19:59.323Z,4.75
2019-02-27T01:22:27.690Z,4.72
2019-02-27T01:25:06.558Z,4.72
2019-02-27T01:27:37.949Z,4.72
2019-02-27T01:30:08.129Z,4.74
2019-02-27T01:32:36.397Z,4.75
2019-02-27T01:35:06.685Z,4.73
2019-02-27T01:37:34.977Z,4.73
2019-02-27T01:40:03.719Z,4.73
2019-02-27T01:42:32.893Z,4.74
2019-02-27T01:45:01.344Z,4.75
2019-02-27T01:47:29.739Z,4.73
2019-02-27T01:49:58.104Z,4.71
2019-02-27T01:52:26.406Z,4.55
2019-02-27T01:54:54.676Z,4.43
2019-02-27T01:57:25.715Z,4.37
2019-02-27T01:59:54.043Z,4.32
2019-02-27T02:02:22.308Z,4.19
2019-02-27T02:04:52.968Z,4.18
2019-02-27T02:07:20.662Z,4.17
2019-02-27T02:09:48.932Z,4.09
2019-02-27T02:12:20.097Z,3.89
2019-02-27T02:15:00.550Z,3.67
2019-02-27T02:17:41.654Z,3.57
2019-02-27T02:20:27.200Z,3.55
2019-02-27T02:23:07.236Z,3.54
2019-02-27T02:25:51.047Z,3.50
2019-02-27T02:28:37.410Z,3.48
2019-02-27T02:31:25.427Z,3.47
2019-02-27T02:34:05.439Z,3.32
2019-02-27T02:36:45.358Z,3.31
2019-02-27T02:39:33.574Z,3.21
2019-02-27T02:42:32.221Z,2.28
2019-02-27T02:45:15.714Z,3.10
2019-02-27T02:48:08.722Z,3.18
2019-02-27T02:50:55.145Z,3.08
2019-02-27T02:53:32.371Z,3.02
2019-02-27T02:56:12.923Z,2.96
2019-02-27T02:58:56.455Z,2.88
2019-02-27T03:01:30.736Z,2.84
2019-02-27T03:04:02.339Z,2.81
2019-02-27T03:06:37.060Z,2.90
2019-02-27T03:09:13.808Z,2.96
2019-02-27T03:11:54.880Z,3.00
2019-02-27T03:14:45.494Z,3.02
2019-02-27T03:17:25.721Z,3.02
2019-02-27T03:20:02.860Z,2.99
2019-02-27T03:22:41.644Z,3.01
2019-02-27T03:25:19.485Z,3.03
2019-02-27T03:27:53.742Z,3.05
2019-02-27T03:30:34.120Z,3.04
2019-02-27T03:33:24.429Z,3.02
2019-02-27T03:36:07.171Z,2.97
2019-02-27T03:38:44.245Z,2.95
2019-02-27T03:41:39.747Z,2.93
2019-02-27T03:44:27.708Z,2.88
2019-02-27T03:47:17.061Z,2.90
2019-02-27T03:50:00.788Z,2.92
2019-02-27T03:52:47.506Z,2.92
2019-02-27T03:55:32.917Z,2.82
2019-02-27T03:58:30.592Z,2.75
2019-02-27T04:01:18.083Z,2.63
2019-02-27T04:03:58.586Z,2.54
2019-02-27T04:06:30.166Z,-0.11
2019-02-27T04:08:58.482Z,2.59
2019-02-27T04:11:26.745Z,2.65
2019-02-27T04:13:55.022Z,2.70
2019-02-27T04:16:28.827Z,2.74
2019-02-27T04:18:53.388Z,2.76
2019-02-27T04:21:25.016Z,2.65
2019-02-27T04:23:51.755Z,2.57
2019-02-27T04:26:20.099Z,2.54
2019-02-27T04:28:48.365Z,2.51
2019-02-27T04:31:16.630Z,2.48
2019-02-27T04:33:45.023Z,2.44
2019-02-27T04:36:13.477Z,2.35
2019-02-27T04:38:41.928Z,2.32
2019-02-27T04:41:10.202Z,2.25
2019-02-27T04:43:38.458Z,2.24
2019-02-27T04:46:06.723Z,2.26
2019-02-27T04:48:34.977Z,2.28
2019-02-27T04:51:03.278Z,2.27
2019-02-27T04:53:32.504Z,2.26
2019-02-27T04:56:00.906Z,2.25
2019-02-27T04:58:31.220Z,2.22
2019-02-27T05:00:59.814Z,-1.31
2019-02-27T05:03:28.614Z,2.20
2019-02-27T05:05:57.099Z,2.17
2019-02-27T05:08:27.134Z,2.17
2019-02-27T05:10:57.083Z,2.17
2019-02-27T05:13:25.335Z,2.15
2019-02-27T05:15:53.708Z,2.11
2019-02-27T05:18:22.006Z,2.08
2019-02-27T05:20:50.276Z,2.00
2019-02-27T05:23:18.628Z,1.87
2019-02-27T05:25:46.916Z,1.77
2019-02-27T05:28:15.180Z,1.70
2019-02-27T05:30:45.227Z,1.65
2019-02-27T05:33:13.570Z,1.70
2019-02-27T05:35:41.906Z,1.74
2019-02-27T05:38:10.302Z,1.67
2019-02-27T05:40:38.610Z,1.60
2019-02-27T05:43:06.937Z,1.62
2019-02-27T05:45:35.228Z,1.64
2019-02-27T05:48:03.517Z,1.39
2019-02-27T05:50:34.138Z,1.64
2019-02-27T05:53:01.879Z,1.65
2019-02-27T05:55:30.206Z,1.66
2019-02-27T05:57:58.507Z,1.66
2019-02-27T06:00:26.789Z,1.63
2019-02-27T06:02:56.957Z,1.60
2019-02-27T06:05:25.236Z,1.60
2019-02-27T06:07:53.587Z,1.57
2019-02-27T06:10:23.578Z,1.55
2019-02-27T06:12:52.002Z,1.48
2019-02-27T06:15:20.342Z,1.48
2019-02-27T06:17:49.703Z,1.49
2019-02-27T06:20:18.120Z,1.53
2019-02-27T06:22:46.418Z,1.53
2019-02-27T06:25:21.688Z,1.50
2019-02-27T06:27:47.925Z,1.49
2019-02-27T06:30:17.937Z,1.49
2019-02-27T06:32:46.211Z,1.50
2019-02-27T06:35:15.041Z,1.45
2019-02-27T06:37:43.398Z,1.48
2019-02-27T06:40:18.238Z,1.49
2019-02-27T06:42:46.816Z,1.53
2019-02-27T06:45:16.841Z,1.57
2019-02-27T06:47:45.124Z,1.56
2019-02-27T06:50:16.808Z,1.59
2019-02-27T06:52:45.171Z,0.45
2019-02-27T06:55:14.563Z,1.63
2019-02-27T06:57:42.933Z,1.64
2019-02-27T07:00:22.466Z,1.66
2019-02-27T07:02:55.163Z,1.70
2019-02-27T07:05:20.765Z,1.74
2019-02-27T07:07:49.043Z,1.79
2019-02-27T07:10:20.027Z,1.84
2019-02-27T07:12:48.510Z,1.88
2019-02-27T07:15:21.044Z,1.92
2019-02-27T07:17:49.336Z,1.98
2019-02-27T07:20:17.658Z,2.00
2019-02-27T07:22:46.764Z,-0.57
2019-02-27T07:25:17.790Z,2.01
2019-02-27T07:27:46.050Z,2.09
2019-02-27T07:30:19.415Z,2.09
2019-02-27T07:32:47.666Z,2.15
2019-02-27T07:35:16.395Z,2.16
2019-02-27T07:37:47.155Z,2.24
2019-02-27T07:40:19.840Z,2.32
2019-02-27T07:42:48.106Z,2.42
2019-02-27T07:45:22.567Z,2.54
2019-02-27T07:47:50.785Z,2.64
2019-02-27T07:50:19.984Z,2.69
2019-02-27T07:52:48.245Z,2.83
2019-02-27T07:55:22.943Z,2.94
2019-02-27T07:57:51.094Z,3.10
2019-02-27T08:00:22.931Z,3.23
2019-02-27T08:02:51.182Z,3.35
2019-02-27T08:05:19.440Z,3.44
2019-02-27T08:07:49.097Z,3.56
2019-02-27T08:10:22.942Z,3.69
2019-02-27T08:12:55.493Z,3.80
2019-02-27T08:15:21.214Z,3.99
2019-02-27T08:17:49.546Z,4.14
2019-02-27T08:20:20.464Z,4.35
2019-02-27T08:22:48.236Z,4.54
2019-02-27T08:25:20.768Z,4.82
2019-02-27T08:27:49.061Z,5.14
2019-02-27T08:30:20.582Z,5.45
2019-02-27T08:32:48.849Z,5.74
2019-02-27T08:35:17.128Z,6.00
2019-02-27T08:37:45.385Z,6.28
2019-02-27T08:40:14.580Z,6.58
2019-02-27T08:42:42.938Z,6.87
2019-02-27T08:45:19.670Z,7.23
2019-02-27T08:47:45.695Z,7.65
2019-02-27T08:50:15.832Z,8.16
2019-02-27T08:52:44.668Z,8.59
2019-02-27T08:55:19.920Z,9.05
2019-02-27T08:57:44.689Z,9.44
2019-02-27T09:00:27.493Z,9.85
2019-02-27T09:02:55.968Z,10.27
2019-02-27T09:05:24.295Z,10.71
2019-02-27T09:07:52.576Z,11.09
2019-02-27T09:10:27.538Z,11.40
2019-02-27T09:13:04.378Z,11.71
2019-02-27T09:15:24.684Z,12.14
2019-02-27T09:17:52.934Z,12.54
2019-02-27T09:20:21.734Z,12.83
2019-02-27T09:22:50.002Z,12.47
2019-02-27T09:25:18.269Z,13.40
2019-02-27T09:27:46.525Z,13.63
2019-02-27T09:30:22.985Z,13.85
2019-02-27T09:32:51.269Z,14.02
2019-02-27T09:35:19.601Z,13.16
2019-02-27T09:37:48.266Z,14.32
2019-02-27T09:40:25.144Z,14.53
2019-02-27T09:42:53.924Z,14.76
2019-02-27T09:45:35.089Z,14.99
2019-02-27T09:48:03.667Z,15.18
2019-02-27T09:50:47.578Z,15.35
2019-02-27T09:53:12.797Z,15.48
2019-02-27T09:55:41.092Z,15.66
2019-02-27T09:58:11.526Z,15.78
2019-02-27T10:00:47.878Z,15.96
2019-02-27T10:03:20.218Z,16.15
2019-02-27T10:05:46.238Z,16.31
2019-02-27T10:08:14.494Z,16.42
2019-02-27T10:10:45.819Z,16.65
2019-02-27T10:13:12.816Z,16.86
2019-02-27T10:15:41.080Z,17.06
2019-02-27T10:18:09.377Z,17.23
2019-02-27T10:20:38.042Z,17.43
2019-02-27T10:23:06.373Z,17.63
2019-02-27T10:25:34.641Z,17.79
2019-02-27T10:28:04.489Z,17.96
2019-02-27T10:30:32.917Z,18.12
2019-02-27T10:33:03.171Z,18.33
2019-02-27T10:35:31.147Z,18.45
2019-02-27T10:37:59.439Z,18.59
2019-02-27T10:40:27.830Z,18.64
2019-02-27T10:42:56.103Z,18.73
2019-02-27T10:45:24.437Z,18.84
2019-02-27T10:47:52.805Z,18.95
2019-02-27T10:50:21.080Z,19.01
2019-02-27T10:52:50.217Z,19.08
2019-02-27T10:55:23.039Z,19.20
2019-02-27T10:57:51.500Z,19.36
2019-02-27T11:00:27.462Z,19.54
2019-02-27T11:02:55.796Z,19.74
2019-02-27T11:05:26.718Z,19.90
2019-02-27T11:07:55.219Z,20.08
2019-02-27T11:10:23.670Z,20.20
2019-02-27T11:12:51.930Z,20.32
2019-02-27T11:15:21.432Z,20.38
2019-02-27T11:17:49.789Z,20.56
2019-02-27T11:20:21.073Z,20.70
2019-02-27T11:22:48.046Z,20.73
2019-02-27T11:25:27.070Z,20.76
2019-02-27T11:27:55.442Z,20.91
2019-02-27T11:30:37.664Z,21.00
2019-02-27T11:33:06.038Z,21.15
2019-02-27T11:35:34.521Z,21.28
2019-02-27T11:38:02.880Z,21.37
2019-02-27T11:40:31.149Z,21.44
2019-02-27T11:43:01.133Z,21.42
2019-02-27T11:45:29.840Z,21.43
2019-02-27T11:47:58.257Z,21.34
2019-02-27T11:50:26.684Z,21.28
2019-02-27T11:53:01.794Z,21.31
2019-02-27T11:55:27.862Z,21.33
2019-02-27T11:57:56.170Z,21.30
2019-02-27T12:00:27.081Z,21.07
2019-02-27T12:02:55.811Z,20.95
2019-02-27T12:05:24.292Z,20.88
2019-02-27T12:07:52.700Z,21.08
2019-02-27T12:10:25.777Z,21.16
2019-02-27T12:12:59.718Z,21.20
2019-02-27T12:15:24.117Z,21.38
2019-02-27T12:17:52.568Z,21.61
2019-02-27T12:20:24.509Z,21.86
2019-02-27T12:22:52.869Z,22.09
2019-02-27T12:25:26.920Z,22.25
2019-02-27T12:27:56.486Z,22.30
2019-02-27T12:30:26.592Z,22.34
2019-02-27T12:32:57.597Z,22.42
2019-02-27T12:35:34.080Z,22.47
2019-02-27T12:38:06.828Z,22.53
2019-02-27T12:40:32.687Z,22.62
2019-02-27T12:43:00.984Z,22.69
2019-02-27T12:45:32.325Z,22.81
2019-02-27T12:48:00.787Z,22.89
2019-02-27T12:50:31.394Z,22.96
2019-02-27T12:53:01.383Z,22.97
2019-02-27T12:55:29.716Z,23.05
2019-02-27T12:57:57.966Z,23.06
2019-02-27T13:00:30.840Z,22.99
2019-02-27T13:03:08.430Z,22.91
2019-02-27T13:05:34.531Z,22.92
2019-02-27T13:08:02.872Z,22.91
2019-02-27T13:10:34.163Z,22.93
2019-02-27T13:13:01.192Z,22.94
2019-02-27T13:15:30.111Z,22.92
2019-02-27T13:17:58.408Z,22.91
2019-02-27T13:20:28.287Z,22.78
2019-02-27T13:22:56.740Z,22.65
2019-02-27T13:25:25.051Z,22.61
2019-02-27T13:27:53.380Z,22.51
2019-02-27T13:30:25.912Z,22.49
2019-02-27T13:32:54.164Z,22.55
2019-02-27T13:35:22.997Z,22.50
2019-02-27T13:37:52.365Z,22.38
2019-02-27T13:40:34.932Z,22.21
2019-02-27T13:43:01.159Z,21.96
2019-02-27T13:45:31.005Z,21.93
2019-02-27T13:48:04.941Z,21.90
2019-02-27T13:50:29.255Z,21.74
2019-02-27T13:52:57.511Z,21.54
2019-02-27T13:55:25.776Z,21.35
2019-02-27T13:57:58.831Z,20.89
2019-02-27T14:00:31.342Z,20.42
2019-02-27T14:02:59.592Z,19.91
2019-02-27T14:05:29.409Z,19.57
2019-02-27T14:07:58.787Z,19.30
2019-02-27T14:10:29.257Z,19.32
2019-02-27T14:12:57.508Z,19.35
2019-02-27T14:15:27.274Z,19.29
2019-02-27T14:17:55.768Z,19.16
2019-02-27T14:20:27.012Z,19.01
2019-02-27T14:22:54.560Z,18.93
2019-02-27T14:25:28.464Z,18.73
2019-02-27T14:27:55.493Z,18.65
2019-02-27T14:30:26.395Z,18.35
2019-02-27T14:32:54.743Z,18.15
2019-02-27T14:35:23.000Z,18.01
2019-02-27T14:37:51.250Z,17.98
2019-02-27T14:40:21.351Z,17.83
2019-02-27T14:42:53.929Z,17.79
2019-02-27T14:45:21.524Z,17.72
2019-02-27T14:47:49.793Z,17.65
2019-02-27T14:50:19.802Z,17.52
2019-02-27T14:52:49.954Z,17.51
2019-02-27T14:55:18.462Z,17.52
2019-02-27T14:57:49.922Z,17.45
2019-02-27T15:00:24.427Z,17.41
2019-02-27T15:02:55.704Z,17.36
2019-02-27T15:05:22.918Z,17.28
2019-02-27T15:07:53.473Z,17.22
2019-02-27T15:10:21.820Z,17.19
2019-02-27T15:12:53.972Z,17.15
2019-02-27T15:15:25.728Z,17.10
2019-02-27T15:17:54.280Z,17.02
2019-02-27T15:20:24.352Z,16.93
2019-02-27T15:22:53.609Z,16.80
2019-02-27T15:25:22.071Z,16.75
2019-02-27T15:27:50.355Z,16.67
2019-02-27T15:30:24.190Z,16.63
2019-02-27T15:32:52.822Z,16.54
2019-02-27T15:35:22.196Z,16.47
2019-02-27T15:37:50.689Z,16.21
2019-02-27T15:40:20.801Z,16.32
2019-02-27T15:42:49.060Z,16.29
2019-02-27T15:45:21.896Z,16.25
2019-02-27T15:47:50.148Z,16.16
2019-02-27T15:50:23.744Z,16.10
2019-02-27T15:52:52.002Z,16.06
2019-02-27T15:55:20.256Z,15.95
2019-02-27T15:57:52.014Z,15.81
2019-02-27T16:00:27.900Z,15.74
2019-02-27T16:02:56.170Z,15.66
2019-02-27T16:05:30.160Z,15.60
2019-02-27T16:07:54.493Z,15.50
2019-02-27T16:10:26.807Z,15.42
2019-02-27T16:12:59.972Z,15.32
2019-02-27T16:15:25.224Z,15.28
2019-02-27T16:17:53.498Z,15.24
2019-02-27T16:20:25.504Z,15.17
2019-02-27T16:22:53.762Z,15.06
2019-02-27T16:25:24.137Z,15.00
2019-02-27T16:27:52.389Z,14.91
2019-02-27T16:30:23.349Z,14.83
2019-02-27T16:32:51.601Z,14.70
2019-02-27T16:35:19.880Z,14.61
2019-02-27T16:37:48.200Z,14.51
2019-02-27T16:40:18.865Z,14.38
2019-02-27T16:42:47.394Z,14.24
2019-02-27T16:45:18.508Z,14.13
2019-02-27T16:47:46.771Z,14.01
2019-02-27T16:50:23.925Z,13.89
2019-02-27T16:52:50.578Z,13.81
2019-02-27T16:55:23.628Z,13.74
2019-02-27T16:57:56.298Z,13.66
2019-02-27T17:00:32.241Z,13.51
2019-02-27T17:03:00.495Z,13.36
2019-02-27T17:05:28.744Z,13.21
2019-02-27T17:08:00.285Z,13.15
2019-02-27T17:10:29.667Z,13.07
2019-02-27T17:12:58.002Z,12.90
2019-02-27T17:15:26.267Z,12.71
2019-02-27T17:17:54.514Z,12.59
2019-02-27T17:20:24.615Z,12.52
2019-02-27T17:22:52.868Z,12.52
2019-02-27T17:25:21.114Z,12.45
2019-02-27T17:27:50.894Z,12.32
2019-02-27T17:30:30.451Z,12.23
2019-02-27T17:33:01.397Z,12.16
2019-02-27T17:35:28.719Z,12.12
2019-02-27T17:37:58.308Z,11.97
2019-02-27T17:40:26.716Z,11.14
2019-02-27T17:42:55.007Z,11.73
2019-02-27T17:45:25.350Z,11.61
2019-02-27T17:47:53.616Z,11.52
2019-02-27T17:50:21.868Z,11.42
2019-02-27T17:52:50.133Z,11.35
2019-02-27T17:55:19.231Z,11.28
2019-02-27T17:57:47.492Z,11.19
2019-02-27T18:00:20.654Z,9.98
2019-02-27T18:02:48.983Z,10.99
2019-02-27T18:05:17.237Z,10.90
2019-02-27T18:07:45.530Z,10.77
2019-02-27T18:10:14.821Z,10.69
2019-02-27T18:12:43.086Z,10.63
2019-02-27T18:15:19.998Z,10.56
2019-02-27T18:17:46.179Z,10.46
2019-02-27T18:20:14.449Z,10.39
2019-02-27T18:22:42.714Z,10.30
2019-02-27T18:25:13.967Z,10.24
2019-02-27T18:27:42.238Z,10.12
2019-02-27T18:30:15.508Z,10.03
2019-02-27T18:32:43.402Z,9.94
2019-02-27T18:35:12.939Z,9.86
2019-02-27T18:37:41.214Z,9.74
2019-02-27T18:40:11.856Z,9.63
2019-02-27T18:42:40.079Z,9.60
2019-02-27T18:45:14.987Z,9.47
2019-02-27T18:47:41.183Z,9.37
2019-02-27T18:50:12.442Z,9.26
2019-02-27T18:52:40.719Z,9.17
2019-02-27T18:55:16.512Z,9.10
2019-02-27T18:57:47.210Z,9.02
2019-02-27T19:00:21.019Z,8.95
2019-02-27T19:02:51.994Z,8.89
2019-02-27T19:05:20.753Z,8.80
2019-02-27T19:07:53.815Z,8.74
2019-02-27T19:10:19.033Z,8.69
2019-02-27T19:12:47.268Z,8.62
2019-02-27T19:15:17.779Z,8.55
2019-02-27T19:17:46.105Z,8.49
2019-02-27T19:20:24.839Z,8.45
2019-02-27T19:22:53.119Z,8.34
2019-02-27T19:25:21.379Z,8.12
2019-02-27T19:27:50.540Z,8.01
2019-02-27T19:30:19.466Z,7.89
2019-02-27T19:32:48.367Z,7.76
2019-02-27T19:35:21.130Z,7.68
2019-02-27T19:37:46.901Z,7.68
2019-02-27T19:40:17.850Z,7.57
2019-02-27T19:42:51.211Z,7.56
2019-02-27T19:45:19.583Z,7.46
2019-02-27T19:47:49.698Z,7.50
2019-02-27T19:50:18.231Z,7.57
2019-02-27T19:52:50.823Z,7.61
2019-02-27T19:55:20.556Z,7.63
2019-02-27T19:57:50.388Z,7.60
2019-02-27T20:00:26.089Z,7.58
2019-02-27T20:03:01.144Z,7.54
2019-02-27T20:05:30.335Z,7.52
2019-02-27T20:08:02.245Z,7.50
2019-02-27T20:10:33.140Z,7.44
2019-02-27T20:13:03.167Z,7.42
2019-02-27T20:15:31.453Z,7.37
2019-02-27T20:17:59.748Z,7.32
2019-02-27T20:20:29.955Z,7.20
2019-02-27T20:22:58.111Z,7.11
2019-02-27T20:25:28.843Z,7.00
2019-02-27T20:27:58.707Z,6.94
2019-02-27T20:30:27.140Z,6.81
2019-02-27T20:32:55.477Z,6.60
2019-02-27T20:35:23.751Z,6.60
2019-02-27T20:37:52.026Z,6.65
2019-02-27T20:40:20.895Z,6.68
2019-02-27T20:42:50.453Z,6.68
2019-02-27T20:45:20.467Z,6.67
2019-02-27T20:47:48.849Z,6.64
2019-02-27T20:50:34.472Z,6.55
2019-02-27T20:52:56.190Z,6.43
2019-02-27T20:55:24.461Z,6.36
2019-02-27T20:57:52.708Z,6.32
2019-02-27T21:00:22.353Z,6.26
2019-02-27T21:02:53.507Z,6.23
2019-02-27T21:05:21.204Z,6.21
2019-02-27T21:07:49.466Z,6.20
2019-02-27T21:10:23.631Z,6.13
2019-02-27T21:12:54.217Z,6.08
2019-02-27T21:15:21.909Z,6.06
2019-02-27T21:17:50.179Z,6.01
2019-02-27T21:20:18.456Z,5.99
2019-02-27T21:22:46.717Z,5.95
2019-02-27T21:25:15.736Z,5.92
2019-02-27T21:27:44.097Z,5.88
2019-02-27T21:30:20.395Z,5.84
2019-02-27T21:32:48.680Z,5.78
2019-02-27T21:35:16.942Z,5.64
2019-02-27T21:37:45.765Z,5.57
2019-02-27T21:40:18.637Z,5.52
2019-02-27T21:42:46.945Z,4.81
2019-02-27T21:45:17.695Z,5.52
2019-02-27T21:47:51.407Z,5.53
2019-02-27T21:50:19.573Z,5.53
2019-02-27T21:52:48.094Z,5.51
2019-02-27T21:55:16.378Z,5.48
2019-02-27T21:57:44.638Z,5.44
2019-02-27T22:00:19.065Z,5.41
2019-02-27T22:02:47.477Z,5.37
2019-02-27T22:05:18.926Z,5.28
2019-02-27T22:07:46.058Z,5.22
2019-02-27T22:10:19.059Z,5.14
2019-02-27T22:12:45.746Z,5.08
2019-02-27T22:15:21.880Z,5.08
2019-02-27T22:17:47.066Z,5.07
2019-02-27T22:20:15.336Z,5.07
2019-02-27T22:22:43.637Z,5.04
2019-02-27T22:25:12.731Z,5.00
2019-02-27T22:27:43.239Z,4.94
2019-02-27T22:30:16.644Z,4.88
2019-02-27T22:32:47.756Z,4.75
2019-02-27T22:35:15.062Z,4.74
2019-02-27T22:37:43.323Z,4.73
2019-02-27T22:40:14.291Z,4.70
2019-02-27T22:42:42.571Z,4.70
2019-02-27T22:45:13.022Z,4.62
2019-02-27T22:47:41.358Z,4.54
2019-02-27T22:50:12.446Z,4.51
2019-02-27T22:52:40.730Z,4.50
2019-02-27T22:55:10.712Z,4.49
2019-02-27T22:57:39.311Z,4.46
2019-02-27T23:00:30.169Z,4.42
2019-02-27T23:02:58.535Z,4.40
2019-02-27T23:05:26.866Z,1.41
2019-02-27T23:07:55.156Z,4.29
2019-02-27T23:10:23.436Z,4.28
2019-02-27T23:12:51.715Z,4.26
2019-02-27T23:15:19.991Z,4.20
2019-02-27T23:17:48.328Z,4.15
2019-02-27T23:20:17.568Z,4.10
2019-02-27T23:22:46.622Z,3.96
2019-02-27T23:25:15.641Z,3.82
2019-02-27T23:27:44.631Z,3.78
2019-02-27T23:30:15.897Z,3.76
2019-02-27T23:32:42.953Z,3.75
2019-02-27T23:35:15.986Z,3.70
2019-02-27T23:37:41.246Z,3.66
2019-02-27T23:40:09.493Z,3.60
2019-02-27T23:42:37.764Z,3.54
2019-02-27T23:45:10.259Z,3.52
2019-02-27T23:47:38.269Z,3.45
2019-02-27T23:50:10.796Z,3.28
2019-02-27T23:52:39.784Z,3.30
2019-02-27T23:55:09.969Z,3.36
2019-02-27T23:57:40.802Z,3.40
